Kerala — A8MJ3 — position and weather

sailwx.info

Track history (hours):
 
Tides and Currents Weather Stations Pressure Air Temp Water Temp Dewpoint Dewpoint Depression Visibility Wind Speed Wind Dir Waves Ship Positions

Kerala

Last reported at 2017-Sep-20 20:24 UTC. Time now 2017-Sep-24 10:44 UTC.
Position N 28°23' W 118°50'.

Length 228 m; draft 8.2 m.

Type: Tanker. MMSI: 636013350.

Date/timePositionNaut miles runAvg speedWind from/ knotsBaromVisibWave heightAir tempDewpointWater temp
2017-Sep-20 20:24N 28°23' W 118°50'31214.5
2017-Sep-19 22:49N 32°30' W 122°31'615.2
2017-Sep-19 22:25N 32°35' W 122°35'29212.2
2017-Sep-18 22:26N 37°25' W 123°19'613.2
2017-Sep-18 22:00N 37°28' W 123°14'612.6
2017-Sep-18 21:30N 37°32' W 123°07'611.3
2017-Sep-18 21:01N 37°35' W 123°02'611.1
2017-Sep-18 20:30N 37°38' W 122°56'510.8
2017-Sep-18 20:01N 37°41' W 122°50'611.1
2017-Sep-18 19:31N 37°44' W 122°45'510.5
2017-Sep-18 19:00N 37°46' W 122°38'612.3
2017-Sep-18 18:31N 37°48' W 122°31'510.9
2017-Sep-18 18:00N 37°50' W 122°24'510.7
2017-Sep-18 17:30N 37°46' W 122°21'0 0.4
2017-Sep-18 16:58N 37°45' W 122°21'0 0.0
2017-Sep-18 16:28N 37°45' W 122°21'0 0.0
2017-Sep-18 15:58N 37°45' W 122°21'0 0.0
2017-Sep-18 15:28N 37°45' W 122°21'0 0.1
2017-Sep-18 14:58N 37°45' W 122°21'0 0.0
2017-Sep-18 14:28N 37°45' W 122°21'0 0.0
2017-Sep-18 13:58N 37°45' W 122°21'0 0.4
2017-Sep-18 13:28N 37°46' W 122°21'1 2.3
2017-Sep-18 13:00N 37°46' W 122°22'611.2
2017-Sep-18 12:31N 37°51' W 122°25'612.5
2017-Sep-18 12:00N 37°58' W 122°27'713.7
2017-Sep-18 11:30N 38°03' W 122°21'612.0
2017-Sep-18 10:59N 38°04' W 122°13'5 0.2
2017-Sep-17 06:33N 38°02' W 122°07'0 0.1
2017-Sep-17 06:29N 38°02' W 122°07'0 0.4
2017-Sep-17 06:00N 38°02' W 122°08'2 3.1
2017-Sep-17 05:28N 38°02' W 122°10'4 8.1
2017-Sep-17 05:00N 38°04' W 122°14'5 9.5
2017-Sep-17 04:30N 38°03' W 122°20'4 8.3
2017-Sep-17 04:00N 38°01' W 122°24'3 6.5
2017-Sep-17 03:30N 37°58' W 122°26'510.5
2017-Sep-17 03:00N 37°53' W 122°26'4 7.7
2017-Sep-17 02:30N 37°49' W 122°26'611.5
2017-Sep-17 02:01N 37°47' W 122°33'612.8
2017-Sep-17 01:30N 37°45' W 122°40'4 8.6
2017-Sep-17 01:00N 37°42' W 122°44'4 7.9
2017-Sep-17 00:30N 37°39' W 122°48'2 4.6
2017-Sep-17 00:00N 37°38' W 122°51'3 6.1
2017-Sep-16 23:30N 37°37' W 122°54'4 8.3
2017-Sep-16 23:00N 37°34' W 122°58'4 8.4
2017-Sep-16 22:30N 37°32' W 123°03'4 8.5
2017-Sep-16 22:00N 37°30' W 123°07'4 8.5
2017-Sep-16 21:30N 37°28' W 123°12'4 8.3
2017-Sep-16 21:00N 37°25' W 123°16'4 8.2
2017-Sep-16 20:30N 37°23' W 123°20'5 9.1
2017-Sep-16 19:56N 37°20' W 123°25'5 9.6
2017-Sep-16 19:23N 37°17' W 123°31'4 9.1
2017-Sep-16 18:59N 37°15' W 123°35'16610.6
2017-Sep-16 03:20N 34°28' W 123°40'612.4
2017-Sep-16 02:50N 34°22' W 123°40'612.4
2017-Sep-16 02:23N 34°16' W 123°40'8212.1
2017-Sep-15 19:35N 33°03' W 122°56'212.6
2017-Sep-15 19:24N 33°01' W 122°55'1013.0
2017-Sep-15 18:37N 32°52' W 122°49'313.1
2017-Sep-15 18:22N 32°49' W 122°46'513.2
2017-Sep-15 18:00N 32°45' W 122°43'713.2
2017-Sep-15 17:27N 32°39' W 122°38'613.0
2017-Sep-15 16:59N 32°34' W 122°35'2013.0
2017-Sep-15 15:27N 32°17' W 122°22'1013.1
2017-Sep-15 14:42N 32°09' W 122°16'1213.4
2017-Sep-15 13:50N 31°59' W 122°08'413.5
2017-Sep-15 13:30N 31°55' W 122°06'8313.6
2017-Sep-15 07:26N 30°46' W 121°14'  
Track history (hours):
 
Tides and Currents Weather Stations Pressure Air Temp Water Temp Dewpoint Dewpoint Depression Visibility Wind Speed Wind Dir Waves Ship Positions

Kerala

Last reported at 2017-Sep-20 20:24 UTC. Time now 2017-Sep-24 10:44 UTC.
Position N 28°23' W 118°50'.

Length 228 m; draft 8.2 m.

Type: Tanker. MMSI: 636013350.

Date/timePositionNaut miles runAvg speedWind from/ knotsBaromVisibWave heightAir tempDewpointWater temp
2017-Sep-20 20:24N 28°23' W 118°50'31214.5
2017-Sep-19 22:49N 32°30' W 122°31'615.2
2017-Sep-19 22:25N 32°35' W 122°35'29212.2
2017-Sep-18 22:26N 37°25' W 123°19'613.2
2017-Sep-18 22:00N 37°28' W 123°14'612.6
2017-Sep-18 21:30N 37°32' W 123°07'611.3
2017-Sep-18 21:01N 37°35' W 123°02'611.1
2017-Sep-18 20:30N 37°38' W 122°56'510.8
2017-Sep-18 20:01N 37°41' W 122°50'611.1
2017-Sep-18 19:31N 37°44' W 122°45'510.5
2017-Sep-18 19:00N 37°46' W 122°38'612.3
2017-Sep-18 18:31N 37°48' W 122°31'510.9
2017-Sep-18 18:00N 37°50' W 122°24'510.7
2017-Sep-18 17:30N 37°46' W 122°21'0 0.4
2017-Sep-18 16:58N 37°45' W 122°21'0 0.0
2017-Sep-18 16:28N 37°45' W 122°21'0 0.0
2017-Sep-18 15:58N 37°45' W 122°21'0 0.0
2017-Sep-18 15:28N 37°45' W 122°21'0 0.1
2017-Sep-18 14:58N 37°45' W 122°21'0 0.0
2017-Sep-18 14:28N 37°45' W 122°21'0 0.0
2017-Sep-18 13:58N 37°45' W 122°21'0 0.4
2017-Sep-18 13:28N 37°46' W 122°21'1 2.3
2017-Sep-18 13:00N 37°46' W 122°22'611.2
2017-Sep-18 12:31N 37°51' W 122°25'612.5
2017-Sep-18 12:00N 37°58' W 122°27'713.7
2017-Sep-18 11:30N 38°03' W 122°21'612.0
2017-Sep-18 10:59N 38°04' W 122°13'5 0.2
2017-Sep-17 06:33N 38°02' W 122°07'0 0.1
2017-Sep-17 06:29N 38°02' W 122°07'0 0.4
2017-Sep-17 06:00N 38°02' W 122°08'2 3.1
2017-Sep-17 05:28N 38°02' W 122°10'4 8.1
2017-Sep-17 05:00N 38°04' W 122°14'5 9.5
2017-Sep-17 04:30N 38°03' W 122°20'4 8.3
2017-Sep-17 04:00N 38°01' W 122°24'3 6.5
2017-Sep-17 03:30N 37°58' W 122°26'510.5
2017-Sep-17 03:00N 37°53' W 122°26'4 7.7
2017-Sep-17 02:30N 37°49' W 122°26'611.5
2017-Sep-17 02:01N 37°47' W 122°33'612.8
2017-Sep-17 01:30N 37°45' W 122°40'4 8.6
2017-Sep-17 01:00N 37°42' W 122°44'4 7.9
2017-Sep-17 00:30N 37°39' W 122°48'2 4.6
2017-Sep-17 00:00N 37°38' W 122°51'3 6.1
2017-Sep-16 23:30N 37°37' W 122°54'4 8.3
2017-Sep-16 23:00N 37°34' W 122°58'4 8.4
2017-Sep-16 22:30N 37°32' W 123°03'4 8.5
2017-Sep-16 22:00N 37°30' W 123°07'4 8.5
2017-Sep-16 21:30N 37°28' W 123°12'4 8.3
2017-Sep-16 21:00N 37°25' W 123°16'4 8.2
2017-Sep-16 20:30N 37°23' W 123°20'5 9.1
2017-Sep-16 19:56N 37°20' W 123°25'5 9.6
2017-Sep-16 19:23N 37°17' W 123°31'4 9.1
2017-Sep-16 18:59N 37°15' W 123°35'16610.6
2017-Sep-16 03:20N 34°28' W 123°40'612.4
2017-Sep-16 02:50N 34°22' W 123°40'612.4
2017-Sep-16 02:23N 34°16' W 123°40'8212.1
2017-Sep-15 19:35N 33°03' W 122°56'212.6
2017-Sep-15 19:24N 33°01' W 122°55'1013.0
2017-Sep-15 18:37N 32°52' W 122°49'313.1
2017-Sep-15 18:22N 32°49' W 122°46'513.2
2017-Sep-15 18:00N 32°45' W 122°43'713.2
2017-Sep-15 17:27N 32°39' W 122°38'613.0
2017-Sep-15 16:59N 32°34' W 122°35'2013.0
2017-Sep-15 15:27N 32°17' W 122°22'1013.1
2017-Sep-15 14:42N 32°09' W 122°16'1213.4
2017-Sep-15 13:50N 31°59' W 122°08'413.5
2017-Sep-15 13:30N 31°55' W 122°06'8313.6
2017-Sep-15 07:26N 30°46' W 121°14'  

Dump ship's entire track history